GCC Virtual Airport Information Service

Chek Lap Kok International Airport

ICAO: VHHH Country: HK
Latitude: 22.3089 Longitude: 113.915
Latest Arrival : UAE380 (OMDB-VHHH) Latest Departure : UAE383 (VHHH-OMDB)


WX CaptureLIVE
Data provided by noaa.gov | Fetched at 12:27:33

METAR : VHHH 051200Z 04013KT 6000 FEW010 SCT025 22/20 Q1014 NOSIG

TAF : VHHH 051100Z 0512/0618 10010KT 7000 FEW010 SCT020 TX25/0606Z TN22/0523Z TEMPO 0520/0603 VRB05KT 2000 BR -RA TEMPO 0606/0612 VRB05KT 3000 SHRA FEW010CB SCT025 BKN040 BECMG 0612/0614 VRB05KT TEMPO 0615/0618 2000 BR RA


Runway Data for VHHH
Data provided by openaviationdata.com

Runway ID Mag Var Hdg Length Elevation Surface ILS Freq ILS Id ILS Slope
07L -2 72° 12431 ft 28 ft Asphalt 111.1 IZSL 3
07R -2 72° 12431 ft 28 ft Asphalt 109.3 ISR 3
25L -2 252° 12431 ft 28 ft Asphalt 108.9 IFL 3
25R -2 252° 12431 ft 28 ft Asphalt 110.9 ITFR 3

Chek Lap Kok International Airport, HK
Use only for reference purposes



Not for navigational purposes.